METAR Data
IDs: Format: Raw Decoded Include TAF

Data at: 1827 UTC 21 Sep 2018

KRBD 211800Z 14007KT 10SM FEW022 SCT042 BKN055 27/25 A2994 RMK AO2 RAE1757 P0000 T02670250
KRBD 211753Z 15005KT 7SM -RA FEW015 BKN025 BKN045 26/24 A2995 RMK AO2 RAE05B13 SLP134 P0017 60021 T02560244 10267 20244 58004
KRBD 211730Z 14011KT 1 1/4SM -RA BR FEW016 BKN023 OVC037 25/23 A2996 RMK AO2 RAE05B13 P0012 T02500228
KRBD 211726Z 15010KT 10SM SCT023 BKN029 OVC037 26/23 A2996 RMK AO2 RAE05B13E22 P0001 T02560228
KRBD 211707Z 12008KT 10SM FEW013 BKN055 OVC090 26/25 A2996 RMK AO2 RAE05 P0001 T02610250
KRBD 211700Z 12010KT 2 1/2SM -RA BR SCT013 BKN055 OVC110 26/24 A2996 RMK AO2 VIS 3/4V5 P0001 T02610244
KRBD 211653Z 16010KT 4SM -RA BR SCT014 BKN060 OVC110 27/24 A2997 RMK AO2 RAE08B34 SLP141 P0003 T02670244
KRBD 211600Z 16008KT 4SM -RA BR BKN019 BKN034 OVC110 26/24 A2998 RMK AO2 CIG 015V027 P0000 T02610239
KRBD 211553Z 16008KT 6SM -RA BKN014 BKN022 OVC027 27/23 A2998 RMK AO2 RAB50 SLP143 P0001 T02670233
KRBD 211453Z 16007KT 130V190 10SM BKN014 BKN022 OVC027 27/23 A2996 RMK AO2 SLP138 T02670233 53009
KRBD 211353Z 17008KT 10SM BKN012 BKN110 26/23 A2995 RMK AO2 SLP135 T02560233
KRBD 211253Z 17007KT 10SM OVC010 25/23 A2994 RMK AO2 CIG 008V012 SLP132 T02500233
KRBD 211153Z 18007KT 10SM BKN010 OVC100 25/23 A2994 RMK AO2 CIG 008V014 SLP129 T02500233 10250 20239 53003
KRBD 211131Z AUTO 17007KT 10SM BKN010 OVC100 25/23 A2993 RMK AO2 CIG 008V013 T02500228
KRBD 211053Z AUTO 16008KT 10SM OVC009 24/23 A2993 RMK AO2 SLP126 T02440228
KRBD 211027Z AUTO 16010KT 10SM BKN011 OVC095 24/22 A2993 RMK AO2 CIG 009V014 T02440222
KRBD 210953Z AUTO 17009KT 10SM FEW013 OVC090 24/22 A2993 RMK AO2 SLP126 T02440222
KRBD 210853Z AUTO 16008KT 10SM BKN070 BKN090 24/22 A2993 RMK AO2 SLP125 T02390217 56003
KRBD 210753Z AUTO 16009KT 10SM OVC070 24/21 A2993 RMK AO2 SLP126 T02390211
KRBD 210653Z AUTO 16008KT 10SM OVC070 24/21 A2993 RMK AO2 SLP125 T02440206
KRBD 210553Z AUTO 17009KT 10SM BKN065 OVC080 24/20 A2994 RMK AO2 RAB0455E05 SLP128 P0000 60000 T02390200 10261 20239 403280228 58004
KRBD 210453Z AUTO 17009KT 10SM CLR 24/20 A2995 RMK AO2 SLP132 T02440200
KRBD 210353Z AUTO 16005KT 10SM SCT110 24/20 A2996 RMK AO2 SLP135 T02440200
KRBD 210253Z AUTO 15006KT 10SM FEW040 24/20 A2995 RMK AO2 SLP133 60000 T02390200 51018
KRBD 210153Z AUTO 14008KT 10SM FEW090 24/20 A2994 RMK AO2 RAB12E44 SLP131 P0000 T02440200
KRBD 210053Z 13007KT 10SM CLR 25/19 A2992 RMK AO2 LTG DSNT NE RAE2356 SLP123 P0000 T02500189
KRBD 210007Z 13004KT 10SM SCT048 26/18 A2990 RMK AO2 LTG DSNT N-E RAE2356 P0000 T02560183
KRBD 202353Z VRB05KT 10SM VCTS -RA FEW044 SCT065 SCT080 26/19 A2989 RMK AO2 PK WND 15028/2315 LTG DSNT ALQDS RAB26 TSB03E50 SLP115 P0000 60000 T02560194 10328 20244 53001
KRBD 202309Z 15009KT 10SM TS FEW050 30/21 A2988 RMK AO2 LTG DSNT ALQDS TSB03 T03000211
KRBD 202253Z 14010KT 10SM VCTS CLR 31/21 A2988 RMK AO2 LTG DSNT ALQDS SLP109 T03060211
KRBD 202153Z 16008KT 10SM FEW050 32/19 A2987 RMK AO2 SLP107 T03170194
KRBD 202053Z 15015KT 10SM FEW044 SCT055 BKN070 31/21 A2989 RMK AO2 LTG DSNT SE SLP112 T03110206 58022
KRBD 201953Z 17009KT 150V210 10SM FEW041 32/22 A2991 RMK AO2 SLP121 T03170217
KRBD 201853Z 18010KT 10SM FEW037 30/22 A2993 RMK AO2 SLP127 T03000217
KRBD 201753Z 18007KT 10SM FEW033 29/22 A2996 RMK AO2 SLP135 T02940222 10306 20228 58004
KRBD 201653Z 17011G15KT 10SM FEW034 30/21 A2998 RMK AO2 SLP143 T03000211
KRBD 201553Z 18009KT 10SM CLR 29/22 A2997 RMK AO2 SLP141 T02890217
KRBD 201453Z 17006KT 10SM CLR 27/22 A2997 RMK AO2 SLP139 T02720222 51013
KRBD 201353Z 16006KT 10SM CLR 25/22 A2995 RMK AO2 SLP134 T02500217
KRBD 201253Z 15006KT 10SM CLR 23/21 A2995 RMK AO2 SLP131 T02330211
KRBD 201153Z 11005KT 10SM CLR 23/21 A2993 RMK AO2 SLP126 T02330211 10267 20233 53005
KRBD 201053Z AUTO 19003KT 10SM CLR 24/21 A2992 RMK AO2 SLP122 T02390211
KRBD 200953Z AUTO 16005KT 10SM CLR 24/21 A2992 RMK AO2 SLP122 T02440211
KRBD 200853Z AUTO 18003KT 10SM CLR 25/21 A2991 RMK AO2 SLP119 T02500206 56010
KRBD 200753Z AUTO 16006KT 10SM CLR 25/21 A2992 RMK AO2 SLP124 T02500206
KRBD 200653Z AUTO 16006KT 10SM CLR 26/21 A2993 RMK AO2 SLP125 T02610206